sensor_id;sensor_type;location;lat;lon;timestamp;temperature;humidity
54202;DHT22;40108;53.152;5.844;2023-06-14T00:00:40;16.00;62.90
54202;DHT22;40108;53.152;5.844;2023-06-14T00:03:12;16.00;63.10
54202;DHT22;40108;53.152;5.844;2023-06-14T00:05:43;16.00;63.20
54202;DHT22;40108;53.152;5.844;2023-06-14T00:08:12;16.00;63.40
54202;DHT22;40108;53.152;5.844;2023-06-14T00:10:38;16.00;63.60
54202;DHT22;40108;53.152;5.844;2023-06-14T00:13:06;15.90;63.50
54202;DHT22;40108;53.152;5.844;2023-06-14T00:15:35;15.90;63.50
54202;DHT22;40108;53.152;5.844;2023-06-14T00:18:01;15.80;63.80
54202;DHT22;40108;53.152;5.844;2023-06-14T00:20:28;15.80;63.70
54202;DHT22;40108;53.152;5.844;2023-06-14T00:23:03;15.80;63.70
54202;DHT22;40108;53.152;5.844;2023-06-14T00:25:29;15.80;63.70
54202;DHT22;40108;53.152;5.844;2023-06-14T00:27:58;15.80;63.80
54202;DHT22;40108;53.152;5.844;2023-06-14T00:30:24;15.80;63.80
54202;DHT22;40108;53.152;5.844;2023-06-14T00:32:50;15.70;64.00
54202;DHT22;40108;53.152;5.844;2023-06-14T00:35:20;15.70;64.10
54202;DHT22;40108;53.152;5.844;2023-06-14T00:37:45;15.70;64.20
54202;DHT22;40108;53.152;5.844;2023-06-14T00:40:31;15.60;64.50
54202;DHT22;40108;53.152;5.844;2023-06-14T00:42:57;15.60;64.80
54202;DHT22;40108;53.152;5.844;2023-06-14T00:45:22;15.60;65.00
54202;DHT22;40108;53.152;5.844;2023-06-14T00:47:51;15.50;65.10
54202;DHT22;40108;53.152;5.844;2023-06-14T00:50:20;15.40;65.50
54202;DHT22;40108;53.152;5.844;2023-06-14T00:52:51;15.40;65.60
54202;DHT22;40108;53.152;5.844;2023-06-14T00:55:17;15.40;65.90
54202;DHT22;40108;53.152;5.844;2023-06-14T00:57:46;15.30;66.00
54202;DHT22;40108;53.152;5.844;2023-06-14T01:00:13;15.30;66.20
54202;DHT22;40108;53.152;5.844;2023-06-14T01:02:39;15.20;66.40
54202;DHT22;40108;53.152;5.844;2023-06-14T01:05:06;15.20;66.70
54202;DHT22;40108;53.152;5.844;2023-06-14T01:10:51;15.20;67.20
54202;DHT22;40108;53.152;5.844;2023-06-14T01:13:37;15.10;67.20
54202;DHT22;40108;53.152;5.844;2023-06-14T01:16:05;15.10;67.80
54202;DHT22;40108;53.152;5.844;2023-06-14T01:18:31;15.10;67.70
54202;DHT22;40108;53.152;5.844;2023-06-14T01:20:58;15.10;67.90
54202;DHT22;40108;53.152;5.844;2023-06-14T01:23:24;15.10;68.40
54202;DHT22;40108;53.152;5.844;2023-06-14T01:25:53;15.00;68.80
54202;DHT22;40108;53.152;5.844;2023-06-14T01:28:21;15.00;69.20
54202;DHT22;40108;53.152;5.844;2023-06-14T01:30:52;15.00;69.00
54202;DHT22;40108;53.152;5.844;2023-06-14T01:33:23;14.90;69.20
54202;DHT22;40108;53.152;5.844;2023-06-14T01:35:54;15.00;69.80
54202;DHT22;40108;53.152;5.844;2023-06-14T01:38:25;14.90;69.80
54202;DHT22;40108;53.152;5.844;2023-06-14T01:40:54;14.90;69.90
54202;DHT22;40108;53.152;5.844;2023-06-14T01:43:23;14.90;70.20
54202;DHT22;40108;53.152;5.844;2023-06-14T01:45:51;14.80;70.20
54202;DHT22;40108;53.152;5.844;2023-06-14T01:48:19;14.80;70.20
54202;DHT22;40108;53.152;5.844;2023-06-14T01:50:45;14.80;70.80
54202;DHT22;40108;53.152;5.844;2023-06-14T01:53:11;14.80;70.70
54202;DHT22;40108;53.152;5.844;2023-06-14T01:55:37;14.70;70.70
54202;DHT22;40108;53.152;5.844;2023-06-14T01:58:10;14.70;71.20
54202;DHT22;40108;53.152;5.844;2023-06-14T02:00:36;14.70;71.60
54202;DHT22;40108;53.152;5.844;2023-06-14T02:03:02;14.70;71.80
54202;DHT22;40108;53.152;5.844;2023-06-14T02:05:31;14.60;71.80
54202;DHT22;40108;53.152;5.844;2023-06-14T02:07:57;14.70;72.50
54202;DHT22;40108;53.152;5.844;2023-06-14T02:10:23;14.60;72.20
54202;DHT22;40108;53.152;5.844;2023-06-14T02:12:55;14.60;72.90
54202;DHT22;40108;53.152;5.844;2023-06-14T02:15:20;14.60;72.80
54202;DHT22;40108;53.152;5.844;2023-06-14T02:17:47;14.50;73.10
54202;DHT22;40108;53.152;5.844;2023-06-14T02:20:15;14.50;73.90
54202;DHT22;40108;53.152;5.844;2023-06-14T02:22:41;14.40;73.80
54202;DHT22;40108;53.152;5.844;2023-06-14T02:25:07;14.40;73.70
54202;DHT22;40108;53.152;5.844;2023-06-14T02:27:36;14.40;74.20
54202;DHT22;40108;53.152;5.844;2023-06-14T02:30:02;14.30;74.80
54202;DHT22;40108;53.152;5.844;2023-06-14T02:32:28;14.40;74.80
54202;DHT22;40108;53.152;5.844;2023-06-14T02:34:54;14.40;75.00
54202;DHT22;40108;53.152;5.844;2023-06-14T02:37:22;14.40;74.80
54202;DHT22;40108;53.152;5.844;2023-06-14T02:39:48;14.30;75.00
54202;DHT22;40108;53.152;5.844;2023-06-14T02:42:14;14.30;75.60
54202;DHT22;40108;53.152;5.844;2023-06-14T02:44:40;14.20;76.00
54202;DHT22;40108;53.152;5.844;2023-06-14T02:47:05;14.20;76.10
54202;DHT22;40108;53.152;5.844;2023-06-14T02:49:31;14.20;76.30
54202;DHT22;40108;53.152;5.844;2023-06-14T02:51:57;14.20;76.80
54202;DHT22;40108;53.152;5.844;2023-06-14T02:54:22;14.20;76.70
54202;DHT22;40108;53.152;5.844;2023-06-14T02:56:51;14.20;77.10
54202;DHT22;40108;53.152;5.844;2023-06-14T02:59:19;14.20;77.00
54202;DHT22;40108;53.152;5.844;2023-06-14T03:01:55;14.10;77.00
54202;DHT22;40108;53.152;5.844;2023-06-14T03:04:21;14.10;76.70
54202;DHT22;40108;53.152;5.844;2023-06-14T03:06:47;14.10;77.00
54202;DHT22;40108;53.152;5.844;2023-06-14T03:09:16;14.10;76.90
54202;DHT22;40108;53.152;5.844;2023-06-14T03:11:42;14.00;77.00
54202;DHT22;40108;53.152;5.844;2023-06-14T03:14:07;14.00;77.60
54202;DHT22;40108;53.152;5.844;2023-06-14T03:16:34;14.00;77.90
54202;DHT22;40108;53.152;5.844;2023-06-14T03:18:59;14.00;78.10
54202;DHT22;40108;53.152;5.844;2023-06-14T03:21:25;13.90;77.90
54202;DHT22;40108;53.152;5.844;2023-06-14T03:23:54;13.90;78.20
54202;DHT22;40108;53.152;5.844;2023-06-14T03:26:20;13.90;78.10
54202;DHT22;40108;53.152;5.844;2023-06-14T03:28:47;13.90;78.70
54202;DHT22;40108;53.152;5.844;2023-06-14T03:31:16;13.80;79.10
54202;DHT22;40108;53.152;5.844;2023-06-14T03:33:44;13.80;79.30
54202;DHT22;40108;53.152;5.844;2023-06-14T03:36:12;13.80;79.30
54202;DHT22;40108;53.152;5.844;2023-06-14T03:38:38;13.80;79.10
54202;DHT22;40108;53.152;5.844;2023-06-14T03:41:04;13.80;79.40
54202;DHT22;40108;53.152;5.844;2023-06-14T03:43:30;13.80;79.50
54202;DHT22;40108;53.152;5.844;2023-06-14T03:45:58;13.80;79.60
54202;DHT22;40108;53.152;5.844;2023-06-14T03:48:24;13.80;79.90
54202;DHT22;40108;53.152;5.844;2023-06-14T03:50:49;13.70;79.70
54202;DHT22;40108;53.152;5.844;2023-06-14T03:53:15;13.70;80.20
54202;DHT22;40108;53.152;5.844;2023-06-14T03:55:42;13.70;80.40
54202;DHT22;40108;53.152;5.844;2023-06-14T03:58:08;13.70;80.50
54202;DHT22;40108;53.152;5.844;2023-06-14T04:00:33;13.70;80.70
54202;DHT22;40108;53.152;5.844;2023-06-14T04:03:01;13.70;80.50
54202;DHT22;40108;53.152;5.844;2023-06-14T04:05:28;13.80;81.50
54202;DHT22;40108;53.152;5.844;2023-06-14T04:07:54;13.80;80.70
54202;DHT22;40108;53.152;5.844;2023-06-14T04:10:21;13.80;81.00
54202;DHT22;40108;53.152;5.844;2023-06-14T04:12:47;13.90;81.20
54202;DHT22;40108;53.152;5.844;2023-06-14T04:15:12;13.90;81.40
54202;DHT22;40108;53.152;5.844;2023-06-14T04:17:39;13.90;80.90
54202;DHT22;40108;53.152;5.844;2023-06-14T04:20:05;14.00;81.20
54202;DHT22;40108;53.152;5.844;2023-06-14T04:22:33;14.00;81.20
54202;DHT22;40108;53.152;5.844;2023-06-14T04:24:59;14.10;80.90
54202;DHT22;40108;53.152;5.844;2023-06-14T04:27:26;14.10;81.40
54202;DHT22;40108;53.152;5.844;2023-06-14T04:29:53;14.10;81.00
54202;DHT22;40108;53.152;5.844;2023-06-14T04:32:31;14.10;80.90
54202;DHT22;40108;53.152;5.844;2023-06-14T04:34:59;14.20;81.40
54202;DHT22;40108;53.152;5.844;2023-06-14T04:37:27;14.30;81.10
54202;DHT22;40108;53.152;5.844;2023-06-14T04:39:55;14.30;81.30
54202;DHT22;40108;53.152;5.844;2023-06-14T04:42:22;14.40;81.10
54202;DHT22;40108;53.152;5.844;2023-06-14T04:44:51;14.40;80.80
54202;DHT22;40108;53.152;5.844;2023-06-14T04:47:21;14.50;80.50
54202;DHT22;40108;53.152;5.844;2023-06-14T04:49:47;14.60;80.40
54202;DHT22;40108;53.152;5.844;2023-06-14T04:52:13;14.60;80.10
54202;DHT22;40108;53.152;5.844;2023-06-14T04:54:41;14.70;79.80
54202;DHT22;40108;53.152;5.844;2023-06-14T04:57:10;14.70;79.70
54202;DHT22;40108;53.152;5.844;2023-06-14T04:59:40;14.70;79.50
54202;DHT22;40108;53.152;5.844;2023-06-14T05:02:05;14.80;79.40
54202;DHT22;40108;53.152;5.844;2023-06-14T05:04:32;14.90;79.30
54202;DHT22;40108;53.152;5.844;2023-06-14T05:06:58;15.00;79.10
54202;DHT22;40108;53.152;5.844;2023-06-14T05:09:23;15.00;78.80
54202;DHT22;40108;53.152;5.844;2023-06-14T05:11:52;15.10;78.40
54202;DHT22;40108;53.152;5.844;2023-06-14T05:14:18;15.10;78.10
54202;DHT22;40108;53.152;5.844;2023-06-14T05:16:43;15.20;78.10
54202;DHT22;40108;53.152;5.844;2023-06-14T05:19:12;15.30;77.90
54202;DHT22;40108;53.152;5.844;2023-06-14T05:21:37;15.40;77.60
54202;DHT22;40108;53.152;5.844;2023-06-14T05:24:03;15.50;77.40
54202;DHT22;40108;53.152;5.844;2023-06-14T05:26:29;15.50;77.10
54202;DHT22;40108;53.152;5.844;2023-06-14T05:28:58;15.60;76.90
54202;DHT22;40108;53.152;5.844;2023-06-14T05:31:28;15.60;77.00
54202;DHT22;40108;53.152;5.844;2023-06-14T05:33:54;15.70;76.60
54202;DHT22;40108;53.152;5.844;2023-06-14T05:36:20;15.80;76.50
54202;DHT22;40108;53.152;5.844;2023-06-14T05:38:49;15.90;76.20
54202;DHT22;40108;53.152;5.844;2023-06-14T05:41:16;16.00;76.10
54202;DHT22;40108;53.152;5.844;2023-06-14T05:43:46;16.10;75.60
54202;DHT22;40108;53.152;5.844;2023-06-14T05:46:11;16.20;75.50
54202;DHT22;40108;53.152;5.844;2023-06-14T05:48:37;16.20;75.00
54202;DHT22;40108;53.152;5.844;2023-06-14T05:51:05;16.30;75.10
54202;DHT22;40108;53.152;5.844;2023-06-14T05:53:34;16.40;75.10
54202;DHT22;40108;53.152;5.844;2023-06-14T05:56:02;16.60;75.10
54202;DHT22;40108;53.152;5.844;2023-06-14T05:58:28;16.60;73.80
54202;DHT22;40108;53.152;5.844;2023-06-14T06:00:54;16.70;73.60
54202;DHT22;40108;53.152;5.844;2023-06-14T06:03:20;16.90;73.70
54202;DHT22;40108;53.152;5.844;2023-06-14T06:05:49;17.00;72.10
54202;DHT22;40108;53.152;5.844;2023-06-14T06:08:14;17.10;72.10
54202;DHT22;40108;53.152;5.844;2023-06-14T06:10:46;17.10;72.60
54202;DHT22;40108;53.152;5.844;2023-06-14T06:13:17;17.20;71.30
54202;DHT22;40108;53.152;5.844;2023-06-14T06:15:45;17.40;71.70
54202;DHT22;40108;53.152;5.844;2023-06-14T06:18:12;17.50;70.40
54202;DHT22;40108;53.152;5.844;2023-06-14T06:20:37;17.60;69.50
54202;DHT22;40108;53.152;5.844;2023-06-14T06:23:03;17.60;69.20
54202;DHT22;40108;53.152;5.844;2023-06-14T06:25:29;17.70;68.70
54202;DHT22;40108;53.152;5.844;2023-06-14T06:28:00;17.80;68.10
54202;DHT22;40108;53.152;5.844;2023-06-14T06:30:26;18.00;68.00
54202;DHT22;40108;53.152;5.844;2023-06-14T06:32:52;18.10;67.20
54202;DHT22;40108;53.152;5.844;2023-06-14T06:35:18;18.30;67.30
54202;DHT22;40108;53.152;5.844;2023-06-14T06:37:44;18.60;66.60
54202;DHT22;40108;53.152;5.844;2023-06-14T06:40:13;18.90;65.50
54202;DHT22;40108;53.152;5.844;2023-06-14T06:42:38;19.10;63.20
54202;DHT22;40108;53.152;5.844;2023-06-14T06:45:04;19.30;62.50
54202;DHT22;40108;53.152;5.844;2023-06-14T06:47:30;19.50;62.00
54202;DHT22;40108;53.152;5.844;2023-06-14T06:49:59;19.70;62.60
54202;DHT22;40108;53.152;5.844;2023-06-14T06:52:24;19.80;61.70
54202;DHT22;40108;53.152;5.844;2023-06-14T06:54:50;19.90;60.50
54202;DHT22;40108;53.152;5.844;2023-06-14T06:57:20;20.10;61.00
54202;DHT22;40108;53.152;5.844;2023-06-14T06:59:54;20.20;59.10
54202;DHT22;40108;53.152;5.844;2023-06-14T07:02:19;20.40;59.20
54202;DHT22;40108;53.152;5.844;2023-06-14T07:04:45;20.60;58.80
54202;DHT22;40108;53.152;5.844;2023-06-14T07:07:11;20.70;58.10
54202;DHT22;40108;53.152;5.844;2023-06-14T07:09:36;20.80;57.60
54202;DHT22;40108;53.152;5.844;2023-06-14T07:12:02;20.90;58.40
54202;DHT22;40108;53.152;5.844;2023-06-14T07:14:28;21.00;57.70
54202;DHT22;40108;53.152;5.844;2023-06-14T07:16:55;21.10;56.50
54202;DHT22;40108;53.152;5.844;2023-06-14T07:19:21;21.10;56.80
54202;DHT22;40108;53.152;5.844;2023-06-14T07:21:49;21.40;56.90
54202;DHT22;40108;53.152;5.844;2023-06-14T07:24:16;21.50;56.10
54202;DHT22;40108;53.152;5.844;2023-06-14T07:26:42;21.50;54.50
54202;DHT22;40108;53.152;5.844;2023-06-14T07:29:11;21.50;52.70
54202;DHT22;40108;53.152;5.844;2023-06-14T07:31:39;21.60;53.30
54202;DHT22;40108;53.152;5.844;2023-06-14T07:34:05;21.70;54.10
54202;DHT22;40108;53.152;5.844;2023-06-14T07:36:30;21.80;54.00
54202;DHT22;40108;53.152;5.844;2023-06-14T07:38:58;22.00;53.70
54202;DHT22;40108;53.152;5.844;2023-06-14T07:41:24;22.10;52.30
54202;DHT22;40108;53.152;5.844;2023-06-14T07:43:51;22.10;51.40
54202;DHT22;40108;53.152;5.844;2023-06-14T07:46:16;22.10;51.20
54202;DHT22;40108;53.152;5.844;2023-06-14T07:48:42;22.20;50.70
54202;DHT22;40108;53.152;5.844;2023-06-14T07:51:08;22.40;51.00
54202;DHT22;40108;53.152;5.844;2023-06-14T07:53:33;22.60;51.70
54202;DHT22;40108;53.152;5.844;2023-06-14T07:55:59;22.70;51.20
54202;DHT22;40108;53.152;5.844;2023-06-14T07:58:25;23.00;51.80
54202;DHT22;40108;53.152;5.844;2023-06-14T08:00:51;23.10;51.10
54202;DHT22;40108;53.152;5.844;2023-06-14T08:03:17;23.10;49.40
54202;DHT22;40108;53.152;5.844;2023-06-14T08:05:43;23.10;49.40
54202;DHT22;40108;53.152;5.844;2023-06-14T08:08:12;23.10;48.90
54202;DHT22;40108;53.152;5.844;2023-06-14T08:10:38;23.10;49.20
54202;DHT22;40108;53.152;5.844;2023-06-14T08:13:03;23.20;48.20
54202;DHT22;40108;53.152;5.844;2023-06-14T08:15:29;23.30;47.60
54202;DHT22;40108;53.152;5.844;2023-06-14T08:17:55;23.40;47.50
54202;DHT22;40108;53.152;5.844;2023-06-14T08:20:21;23.50;48.30
54202;DHT22;40108;53.152;5.844;2023-06-14T08:22:47;23.50;47.10
54202;DHT22;40108;53.152;5.844;2023-06-14T08:25:13;23.60;47.20
54202;DHT22;40108;53.152;5.844;2023-06-14T08:27:39;23.90;46.70
54202;DHT22;40108;53.152;5.844;2023-06-14T08:30:05;23.80;45.80
54202;DHT22;40108;53.152;5.844;2023-06-14T08:32:36;23.70;45.30
54202;DHT22;40108;53.152;5.844;2023-06-14T08:35:01;23.60;45.70
54202;DHT22;40108;53.152;5.844;2023-06-14T08:37:28;23.50;46.00
54202;DHT22;40108;53.152;5.844;2023-06-14T08:39:55;23.60;46.50
54202;DHT22;40108;53.152;5.844;2023-06-14T08:42:22;23.70;45.90
54202;DHT22;40108;53.152;5.844;2023-06-14T08:44:49;23.90;46.80
54202;DHT22;40108;53.152;5.844;2023-06-14T08:47:15;23.90;44.90
54202;DHT22;40108;53.152;5.844;2023-06-14T08:49:46;24.00;46.20
54202;DHT22;40108;53.152;5.844;2023-06-14T08:52:13;24.10;47.20
54202;DHT22;40108;53.152;5.844;2023-06-14T08:54:44;24.10;45.20
54202;DHT22;40108;53.152;5.844;2023-06-14T08:57:12;24.20;44.60
54202;DHT22;40108;53.152;5.844;2023-06-14T08:59:46;24.40;45.50
54202;DHT22;40108;53.152;5.844;2023-06-14T09:02:12;24.40;44.90
54202;DHT22;40108;53.152;5.844;2023-06-14T09:04:38;24.20;45.50
54202;DHT22;40108;53.152;5.844;2023-06-14T09:07:05;24.20;46.10
54202;DHT22;40108;53.152;5.844;2023-06-14T09:09:32;24.30;46.00
54202;DHT22;40108;53.152;5.844;2023-06-14T09:11:57;24.50;46.50
54202;DHT22;40108;53.152;5.844;2023-06-14T09:14:24;24.60;46.60
54202;DHT22;40108;53.152;5.844;2023-06-14T09:16:54;24.50;45.00
54202;DHT22;40108;53.152;5.844;2023-06-14T09:19:23;24.40;44.60
54202;DHT22;40108;53.152;5.844;2023-06-14T09:21:52;24.40;43.60
54202;DHT22;40108;53.152;5.844;2023-06-14T09:24:19;24.40;43.10
54202;DHT22;40108;53.152;5.844;2023-06-14T09:26:48;24.30;43.50
54202;DHT22;40108;53.152;5.844;2023-06-14T09:29:16;24.20;44.30
54202;DHT22;40108;53.152;5.844;2023-06-14T09:31:42;24.30;44.00
54202;DHT22;40108;53.152;5.844;2023-06-14T09:34:09;24.30;43.90
54202;DHT22;40108;53.152;5.844;2023-06-14T09:36:41;24.50;44.40
54202;DHT22;40108;53.152;5.844;2023-06-14T09:39:08;24.60;45.20
54202;DHT22;40108;53.152;5.844;2023-06-14T09:41:36;24.70;42.70
54202;DHT22;40108;53.152;5.844;2023-06-14T09:44:12;24.80;42.60
54202;DHT22;40108;53.152;5.844;2023-06-14T09:46:38;24.90;41.90
54202;DHT22;40108;53.152;5.844;2023-06-14T09:49:05;24.70;42.30
54202;DHT22;40108;53.152;5.844;2023-06-14T09:51:42;24.90;44.40
54202;DHT22;40108;53.152;5.844;2023-06-14T09:54:15;25.00;42.20
54202;DHT22;40108;53.152;5.844;2023-06-14T09:56:44;25.10;42.80
54202;DHT22;40108;53.152;5.844;2023-06-14T09:59:12;25.00;42.50
54202;DHT22;40108;53.152;5.844;2023-06-14T10:01:42;24.90;42.70
54202;DHT22;40108;53.152;5.844;2023-06-14T10:04:09;25.00;42.90
54202;DHT22;40108;53.152;5.844;2023-06-14T10:06:40;24.90;42.50
54202;DHT22;40108;53.152;5.844;2023-06-14T10:09:10;25.00;43.20
54202;DHT22;40108;53.152;5.844;2023-06-14T10:11:37;25.30;41.60
54202;DHT22;40108;53.152;5.844;2023-06-14T10:14:10;25.40;40.30
54202;DHT22;40108;53.152;5.844;2023-06-14T10:19:13;25.40;40.30
54202;DHT22;40108;53.152;5.844;2023-06-14T10:24:46;25.40;40.60
54202;DHT22;40108;53.152;5.844;2023-06-14T10:27:14;25.50;41.50
54202;DHT22;40108;53.152;5.844;2023-06-14T10:30:09;25.60;42.00
54202;DHT22;40108;53.152;5.844;2023-06-14T10:33:07;25.60;40.10
54202;DHT22;40108;53.152;5.844;2023-06-14T10:35:33;25.40;39.30
54202;DHT22;40108;53.152;5.844;2023-06-14T10:38:11;25.30;40.30
54202;DHT22;40108;53.152;5.844;2023-06-14T10:40:36;25.30;40.40
54202;DHT22;40108;53.152;5.844;2023-06-14T10:43:21;25.30;40.50
54202;DHT22;40108;53.152;5.844;2023-06-14T10:46:13;25.50;41.20
54202;DHT22;40108;53.152;5.844;2023-06-14T10:48:42;25.40;39.90
54202;DHT22;40108;53.152;5.844;2023-06-14T10:51:21;25.40;41.20
54202;DHT22;40108;53.152;5.844;2023-06-14T10:53:48;25.50;40.80
54202;DHT22;40108;53.152;5.844;2023-06-14T10:58:51;25.40;40.90
54202;DHT22;40108;53.152;5.844;2023-06-14T11:01:28;25.50;41.70
54202;DHT22;40108;53.152;5.844;2023-06-14T11:04:07;25.60;43.00
54202;DHT22;40108;53.152;5.844;2023-06-14T11:06:47;25.80;43.70
54202;DHT22;40108;53.152;5.844;2023-06-14T11:11:51;26.10;40.90
54202;DHT22;40108;53.152;5.844;2023-06-14T11:14:19;25.90;39.80
54202;DHT22;40108;53.152;5.844;2023-06-14T11:16:49;25.60;39.80
54202;DHT22;40108;53.152;5.844;2023-06-14T11:19:15;25.60;40.90
54202;DHT22;40108;53.152;5.844;2023-06-14T11:21:42;25.50;41.40
54202;DHT22;40108;53.152;5.844;2023-06-14T11:24:10;25.60;41.40
54202;DHT22;40108;53.152;5.844;2023-06-14T11:26:37;25.80;41.60
54202;DHT22;40108;53.152;5.844;2023-06-14T11:29:06;25.70;41.10
54202;DHT22;40108;53.152;5.844;2023-06-14T11:31:32;26.00;41.50
54202;DHT22;40108;53.152;5.844;2023-06-14T11:33:59;26.00;41.00
54202;DHT22;40108;53.152;5.844;2023-06-14T11:36:29;26.10;41.60
54202;DHT22;40108;53.152;5.844;2023-06-14T11:39:13;26.00;40.50
54202;DHT22;40108;53.152;5.844;2023-06-14T11:41:42;25.80;41.50
54202;DHT22;40108;53.152;5.844;2023-06-14T11:44:08;25.70;41.20
54202;DHT22;40108;53.152;5.844;2023-06-14T11:46:34;25.70;41.60
54202;DHT22;40108;53.152;5.844;2023-06-14T11:49:01;25.60;41.00
54202;DHT22;40108;53.152;5.844;2023-06-14T11:51:35;25.60;41.00
54202;DHT22;40108;53.152;5.844;2023-06-14T11:54:02;25.80;42.10
54202;DHT22;40108;53.152;5.844;2023-06-14T11:56:29;25.60;41.30
54202;DHT22;40108;53.152;5.844;2023-06-14T11:58:55;25.50;42.30
54202;DHT22;40108;53.152;5.844;2023-06-14T12:01:23;25.50;42.00
54202;DHT22;40108;53.152;5.844;2023-06-14T12:03:50;25.40;41.80
54202;DHT22;40108;53.152;5.844;2023-06-14T12:06:16;25.50;42.10
54202;DHT22;40108;53.152;5.844;2023-06-14T12:08:43;25.70;42.40
54202;DHT22;40108;53.152;5.844;2023-06-14T12:11:12;25.80;43.10
54202;DHT22;40108;53.152;5.844;2023-06-14T12:13:39;25.70;42.50
54202;DHT22;40108;53.152;5.844;2023-06-14T12:16:08;25.60;41.40
54202;DHT22;40108;53.152;5.844;2023-06-14T12:18:35;25.60;42.60
54202;DHT22;40108;53.152;5.844;2023-06-14T12:21:09;25.50;42.20
54202;DHT22;40108;53.152;5.844;2023-06-14T12:23:53;25.50;41.00
54202;DHT22;40108;53.152;5.844;2023-06-14T12:26:20;25.50;41.40
54202;DHT22;40108;53.152;5.844;2023-06-14T12:28:47;25.50;42.30
54202;DHT22;40108;53.152;5.844;2023-06-14T12:31:14;25.40;42.80
54202;DHT22;40108;53.152;5.844;2023-06-14T12:33:41;25.50;43.40
54202;DHT22;40108;53.152;5.844;2023-06-14T12:36:07;25.60;42.20
54202;DHT22;40108;53.152;5.844;2023-06-14T12:38:34;25.90;42.80
54202;DHT22;40108;53.152;5.844;2023-06-14T12:41:00;25.90;41.20
54202;DHT22;40108;53.152;5.844;2023-06-14T12:43:26;25.80;39.60
54202;DHT22;40108;53.152;5.844;2023-06-14T12:45:55;25.70;41.50
54202;DHT22;40108;53.152;5.844;2023-06-14T12:48:26;25.70;43.30
54202;DHT22;40108;53.152;5.844;2023-06-14T12:50:53;25.80;43.50
54202;DHT22;40108;53.152;5.844;2023-06-14T12:53:21;25.90;42.00
54202;DHT22;40108;53.152;5.844;2023-06-14T12:55:48;25.90;42.10
54202;DHT22;40108;53.152;5.844;2023-06-14T12:58:14;25.80;42.40
54202;DHT22;40108;53.152;5.844;2023-06-14T13:00:48;25.80;42.00
54202;DHT22;40108;53.152;5.844;2023-06-14T13:03:14;25.50;42.10
54202;DHT22;40108;53.152;5.844;2023-06-14T13:05:39;25.50;42.40
54202;DHT22;40108;53.152;5.844;2023-06-14T13:08:07;25.30;41.30
54202;DHT22;40108;53.152;5.844;2023-06-14T13:10:34;25.30;42.20
54202;DHT22;40108;53.152;5.844;2023-06-14T13:12:59;25.30;42.20
54202;DHT22;40108;53.152;5.844;2023-06-14T13:15:26;25.40;43.10
54202;DHT22;40108;53.152;5.844;2023-06-14T13:17:52;25.50;43.20
54202;DHT22;40108;53.152;5.844;2023-06-14T13:20:18;25.60;41.60
54202;DHT22;40108;53.152;5.844;2023-06-14T13:22:46;25.60;40.90
54202;DHT22;40108;53.152;5.844;2023-06-14T13:25:12;25.70;40.90
54202;DHT22;40108;53.152;5.844;2023-06-14T13:27:38;25.70;42.40
54202;DHT22;40108;53.152;5.844;2023-06-14T13:30:07;25.80;40.90
54202;DHT22;40108;53.152;5.844;2023-06-14T13:32:32;25.70;40.90
54202;DHT22;40108;53.152;5.844;2023-06-14T13:34:58;25.70;41.10
54202;DHT22;40108;53.152;5.844;2023-06-14T13:37:27;25.60;39.60
54202;DHT22;40108;53.152;5.844;2023-06-14T13:39:52;25.50;41.30
54202;DHT22;40108;53.152;5.844;2023-06-14T13:42:18;25.50;40.90
54202;DHT22;40108;53.152;5.844;2023-06-14T13:44:44;25.40;40.70
54202;DHT22;40108;53.152;5.844;2023-06-14T13:47:09;25.40;40.10
54202;DHT22;40108;53.152;5.844;2023-06-14T13:49:35;25.40;40.50
54202;DHT22;40108;53.152;5.844;2023-06-14T13:52:01;25.40;41.40
54202;DHT22;40108;53.152;5.844;2023-06-14T13:54:27;25.10;41.80
54202;DHT22;40108;53.152;5.844;2023-06-14T13:56:53;25.10;42.10
54202;DHT22;40108;53.152;5.844;2023-06-14T13:59:21;25.20;42.60
54202;DHT22;40108;53.152;5.844;2023-06-14T14:01:49;25.30;41.80
54202;DHT22;40108;53.152;5.844;2023-06-14T14:04:17;25.10;41.10
54202;DHT22;40108;53.152;5.844;2023-06-14T14:06:52;25.10;41.90
54202;DHT22;40108;53.152;5.844;2023-06-14T14:09:24;25.00;41.80
54202;DHT22;40108;53.152;5.844;2023-06-14T14:11:50;25.00;42.10
54202;DHT22;40108;53.152;5.844;2023-06-14T14:14:15;25.00;41.60
54202;DHT22;40108;53.152;5.844;2023-06-14T14:16:41;24.90;41.20
54202;DHT22;40108;53.152;5.844;2023-06-14T14:19:07;24.90;42.60
54202;DHT22;40108;53.152;5.844;2023-06-14T14:21:36;25.00;42.50
54202;DHT22;40108;53.152;5.844;2023-06-14T14:24:01;25.00;41.40
54202;DHT22;40108;53.152;5.844;2023-06-14T14:26:27;25.00;41.10
54202;DHT22;40108;53.152;5.844;2023-06-14T14:28:55;25.00;40.90
54202;DHT22;40108;53.152;5.844;2023-06-14T14:31:21;25.00;41.40
54202;DHT22;40108;53.152;5.844;2023-06-14T14:33:47;25.00;41.70
54202;DHT22;40108;53.152;5.844;2023-06-14T14:36:13;24.90;41.90
54202;DHT22;40108;53.152;5.844;2023-06-14T14:38:39;25.00;42.40
54202;DHT22;40108;53.152;5.844;2023-06-14T14:41:05;25.00;41.40
54202;DHT22;40108;53.152;5.844;2023-06-14T14:43:30;24.90;41.50
54202;DHT22;40108;53.152;5.844;2023-06-14T14:45:57;24.80;41.90
54202;DHT22;40108;53.152;5.844;2023-06-14T14:48:23;24.80;41.50
54202;DHT22;40108;53.152;5.844;2023-06-14T14:50:48;24.80;41.50
54202;DHT22;40108;53.152;5.844;2023-06-14T14:53:17;24.80;41.40
54202;DHT22;40108;53.152;5.844;2023-06-14T14:55:44;24.90;41.70
54202;DHT22;40108;53.152;5.844;2023-06-14T14:58:12;24.90;41.80
54202;DHT22;40108;53.152;5.844;2023-06-14T15:00:38;24.70;49.40
54202;DHT22;40108;53.152;5.844;2023-06-14T15:03:04;24.60;53.30
54202;DHT22;40108;53.152;5.844;2023-06-14T15:05:30;24.50;53.20
54202;DHT22;40108;53.152;5.844;2023-06-14T15:07:56;24.60;53.50
54202;DHT22;40108;53.152;5.844;2023-06-14T15:10:22;24.50;53.40
54202;DHT22;40108;53.152;5.844;2023-06-14T15:12:47;24.60;53.40
54202;DHT22;40108;53.152;5.844;2023-06-14T15:15:13;24.50;52.70
54202;DHT22;40108;53.152;5.844;2023-06-14T15:17:39;24.50;53.60
54202;DHT22;40108;53.152;5.844;2023-06-14T15:20:05;24.60;53.90
54202;DHT22;40108;53.152;5.844;2023-06-14T15:22:31;24.50;53.00
54202;DHT22;40108;53.152;5.844;2023-06-14T15:24:57;24.50;53.70
54202;DHT22;40108;53.152;5.844;2023-06-14T15:27:22;24.40;54.30
54202;DHT22;40108;53.152;5.844;2023-06-14T15:29:48;24.40;53.80
54202;DHT22;40108;53.152;5.844;2023-06-14T15:32:17;24.40;54.50
54202;DHT22;40108;53.152;5.844;2023-06-14T15:34:43;24.30;54.70
54202;DHT22;40108;53.152;5.844;2023-06-14T15:37:08;24.30;55.10
54202;DHT22;40108;53.152;5.844;2023-06-14T15:39:34;24.20;55.90
54202;DHT22;40108;53.152;5.844;2023-06-14T15:42:00;24.10;55.60
54202;DHT22;40108;53.152;5.844;2023-06-14T15:44:26;24.10;54.30
54202;DHT22;40108;53.152;5.844;2023-06-14T15:46:52;24.10;55.40